createdAt,value
2018-07-13T00:01:34.787Z,75.56
2018-07-13T00:04:01.712Z,74.60
2018-07-13T00:06:29.201Z,75.01
2018-07-13T00:08:56.111Z,74.71
2018-07-13T00:11:23.001Z,76.77
2018-07-13T00:14:05.999Z,74.64
2018-07-13T00:16:32.908Z,76.77
2018-07-13T00:18:59.804Z,79.60
2018-07-13T00:21:26.698Z,79.17
2018-07-13T00:23:53.652Z,77.70
2018-07-13T00:26:22.583Z,77.64
2018-07-13T00:28:49.567Z,77.29
2018-07-13T00:31:16.501Z,78.07
2018-07-13T00:33:43.420Z,75.24
2018-07-13T00:36:10.414Z,77.86
2018-07-13T00:38:37.311Z,75.92
2018-07-13T00:41:04.203Z,76.61
2018-07-13T00:43:32.181Z,76.79
2018-07-13T00:45:59.103Z,76.92
2018-07-13T00:48:25.999Z,77.20
2018-07-13T00:50:52.896Z,77.66
2018-07-13T00:53:19.796Z,78.27
2018-07-13T00:55:46.688Z,78.83
2018-07-13T00:58:13.611Z,76.17
2018-07-13T01:00:40.558Z,74.64
2018-07-13T01:03:07.494Z,76.33
2018-07-13T01:05:34.407Z,77.00
2018-07-13T01:08:01.293Z,76.81
2018-07-13T01:10:28.213Z,76.25
2018-07-13T01:12:55.159Z,75.94
2018-07-13T01:15:22.320Z,77.22
2018-07-13T01:17:49.320Z,75.98
2018-07-13T01:20:16.175Z,76.29
2018-07-13T01:22:43.078Z,77.74
2018-07-13T01:25:11.752Z,77.67
2018-07-13T01:27:38.642Z,78.59
2018-07-13T01:30:06.551Z,77.79
2018-07-13T01:32:33.447Z,78.33
2018-07-13T01:35:00.337Z,78.72
2018-07-13T01:37:27.332Z,79.64
2018-07-13T01:39:54.271Z,78.23
2018-07-13T01:42:21.174Z,79.84
2018-07-13T01:44:48.080Z,81.69
2018-07-13T01:47:14.996Z,83.28
2018-07-13T01:49:41.933Z,84.71
2018-07-13T01:52:08.859Z,84.97
2018-07-13T01:54:35.765Z,84.03
2018-07-13T01:57:02.879Z,82.39
2018-07-13T01:59:29.809Z,82.93
2018-07-13T02:01:56.754Z,81.00
2018-07-13T02:04:23.647Z,82.18
2018-07-13T02:06:50.523Z,80.79
2018-07-13T02:09:17.423Z,82.32
2018-07-13T02:11:47.443Z,82.41
2018-07-13T02:14:14.344Z,83.53
2018-07-13T02:16:41.258Z,82.73
2018-07-13T02:19:08.135Z,82.73
2018-07-13T02:21:35.059Z,82.02
2018-07-13T02:24:01.931Z,81.74
2018-07-13T02:26:29.120Z,82.00
2018-07-13T02:28:56.018Z,84.08
2018-07-13T02:31:22.920Z,84.62
2018-07-13T02:33:49.849Z,81.31
2018-07-13T02:36:16.705Z,83.58
2018-07-13T02:38:43.615Z,84.30
2018-07-13T02:41:10.497Z,82.98
2018-07-13T02:43:37.391Z,83.25
2018-07-13T02:46:04.324Z,85.53
2018-07-13T02:48:31.203Z,84.30
2018-07-13T02:50:58.115Z,83.69
2018-07-13T02:53:25.003Z,82.81
2018-07-13T02:55:51.912Z,83.53
2018-07-13T02:58:18.792Z,82.77
2018-07-13T03:00:45.713Z,79.16
2018-07-13T03:03:12.623Z,78.94
2018-07-13T03:05:39.517Z,78.58
2018-07-13T03:08:07.445Z,76.66
2018-07-13T03:10:34.341Z,77.31
2018-07-13T03:13:01.209Z,79.37
2018-07-13T03:15:28.096Z,79.71
2018-07-13T03:17:54.991Z,78.68
2018-07-13T03:20:25.165Z,77.87
2018-07-13T03:22:52.063Z,78.84
2018-07-13T03:25:19.012Z,79.14
2018-07-13T03:27:45.907Z,79.79
2018-07-13T03:30:12.790Z,81.84
2018-07-13T03:32:39.748Z,82.02
2018-07-13T03:35:06.707Z,81.25
2018-07-13T03:37:33.640Z,81.16
2018-07-13T03:40:00.942Z,80.88
2018-07-13T03:42:27.841Z,82.91
2018-07-13T03:44:54.722Z,82.88
2018-07-13T03:47:21.612Z,82.44
2018-07-13T03:49:48.540Z,82.65
2018-07-13T03:52:15.441Z,82.83
2018-07-13T03:54:42.332Z,83.84
2018-07-13T03:57:09.216Z,83.45
2018-07-13T03:59:36.250Z,84.39
2018-07-13T04:02:03.184Z,80.80
2018-07-13T04:04:30.081Z,82.89
2018-07-13T04:06:56.981Z,81.83
2018-07-13T04:09:23.903Z,79.68
2018-07-13T04:11:51.062Z,78.28
2018-07-13T04:14:17.972Z,76.45
2018-07-13T04:16:44.873Z,74.56
2018-07-13T04:19:11.756Z,72.61
2018-07-13T04:21:38.667Z,72.17
2018-07-13T04:24:14.175Z,70.19
2018-07-13T04:26:43.950Z,68.09
2018-07-13T04:29:10.831Z,66.00
2018-07-13T04:31:37.754Z,63.91
2018-07-13T04:34:04.696Z,62.35
2018-07-13T04:36:31.540Z,61.63
2018-07-13T04:38:58.450Z,60.37
2018-07-13T04:41:25.358Z,58.73
2018-07-13T04:43:52.255Z,60.30
2018-07-13T04:46:19.196Z,60.34
2018-07-13T04:48:46.081Z,59.42
2018-07-13T04:51:12.971Z,58.44
2018-07-13T04:53:39.874Z,57.16
2018-07-13T04:56:06.776Z,56.79
2018-07-13T04:58:33.694Z,57.31
2018-07-13T05:01:00.619Z,57.39
2018-07-13T05:03:29.537Z,56.70
2018-07-13T05:05:56.472Z,54.81
2018-07-13T05:08:25.550Z,57.28
2018-07-13T05:10:52.535Z,59.34
2018-07-13T05:13:19.442Z,60.76
2018-07-13T05:15:46.380Z,62.52
2018-07-13T05:18:15.011Z,63.37
2018-07-13T05:20:43.068Z,62.87
2018-07-13T05:23:11.019Z,64.20
2018-07-13T05:25:37.935Z,61.75
2018-07-13T05:28:05.092Z,61.48
2018-07-13T05:30:33.215Z,63.62
2018-07-13T05:33:00.248Z,61.14
2018-07-13T05:35:28.943Z,58.93
2018-07-13T05:38:04.071Z,59.39
2018-07-13T05:40:37.523Z,60.43
2018-07-13T05:43:04.502Z,61.55
2018-07-13T05:45:31.512Z,60.79
2018-07-13T05:47:59.380Z,58.89
2018-07-13T05:50:29.431Z,61.87
2018-07-13T05:52:56.486Z,63.12
2018-07-13T05:55:23.520Z,62.14
2018-07-13T05:57:54.822Z,63.25
2018-07-13T06:00:22.563Z,61.60
2018-07-13T06:02:49.840Z,61.64
2018-07-13T06:05:16.786Z,62.88
2018-07-13T06:07:43.690Z,61.33
2018-07-13T06:10:10.587Z,63.85
2018-07-13T06:12:37.495Z,64.49
2018-07-13T06:15:04.450Z,65.00
2018-07-13T06:17:31.326Z,65.02
2018-07-13T06:19:58.225Z,65.15
2018-07-13T06:22:25.188Z,64.36
2018-07-13T06:24:52.164Z,64.48
2018-07-13T06:27:19.064Z,64.80
2018-07-13T06:29:45.980Z,64.52
2018-07-13T06:32:12.873Z,64.00
2018-07-13T06:34:39.759Z,64.13
2018-07-13T06:37:06.660Z,62.82
2018-07-13T06:39:33.557Z,63.50
2018-07-13T06:42:00.840Z,63.01
2018-07-13T06:44:27.758Z,61.77
2018-07-13T06:46:54.628Z,62.25
2018-07-13T06:49:21.530Z,62.86
2018-07-13T06:51:48.449Z,61.79
2018-07-13T06:54:15.523Z,61.32
2018-07-13T06:56:43.462Z,62.21
2018-07-13T06:59:16.221Z,61.73
2018-07-13T07:01:43.787Z,59.66
2018-07-13T07:04:35.124Z,60.95
2018-07-13T07:07:06.725Z,59.47
2018-07-13T07:09:33.688Z,60.05
2018-07-13T07:12:26.839Z,59.90
2018-07-13T07:14:53.740Z,60.01
2018-07-13T07:17:20.655Z,58.18
2018-07-13T07:19:47.552Z,58.75
2018-07-13T07:22:14.536Z,58.37
2018-07-13T07:24:41.455Z,58.32
2018-07-13T07:27:08.379Z,59.10
2018-07-13T07:29:35.285Z,59.44
2018-07-13T07:32:02.185Z,57.78
2018-07-13T07:34:29.091Z,56.89
2018-07-13T07:36:56.286Z,55.84
2018-07-13T07:39:23.523Z,55.56
2018-07-13T07:41:51.305Z,57.00
2018-07-13T07:44:18.208Z,55.15
2018-07-13T07:46:45.412Z,54.95
2018-07-13T07:49:12.610Z,56.67
2018-07-13T07:51:39.509Z,55.98
2018-07-13T07:54:06.425Z,55.01
2018-07-13T07:56:33.352Z,55.71
2018-07-13T07:59:00.243Z,54.61
2018-07-13T08:01:27.160Z,55.47
2018-07-13T08:03:54.070Z,54.51
2018-07-13T08:06:21.135Z,54.06
2018-07-13T08:08:47.913Z,51.79
2018-07-13T08:11:15.236Z,53.80
2018-07-13T08:13:42.255Z,52.71
2018-07-13T08:16:09.116Z,51.27
2018-07-13T08:18:36.022Z,51.99
2018-07-13T08:21:02.919Z,49.58
2018-07-13T08:23:29.829Z,48.99
2018-07-13T08:25:56.746Z,52.25
2018-07-13T08:28:23.768Z,50.96
2018-07-13T08:30:54.951Z,51.49
2018-07-13T08:33:21.867Z,51.08
2018-07-13T08:35:48.779Z,50.27
2018-07-13T08:38:15.687Z,51.46
2018-07-13T08:40:42.597Z,50.31
2018-07-13T08:43:09.488Z,49.80
2018-07-13T08:45:36.399Z,49.67
2018-07-13T08:48:05.491Z,48.16
2018-07-13T08:50:32.416Z,49.08
2018-07-13T08:52:59.342Z,48.28
2018-07-13T08:55:26.259Z,47.37
2018-07-13T08:57:53.218Z,46.77
2018-07-13T09:00:20.220Z,47.59
2018-07-13T09:02:47.167Z,46.40
2018-07-13T09:05:14.079Z,46.03
2018-07-13T09:07:41.000Z,44.82
2018-07-13T09:10:09.396Z,46.49
2018-07-13T09:12:36.439Z,45.07
2018-07-13T09:15:03.360Z,45.49
2018-07-13T09:17:30.258Z,46.50
2018-07-13T09:19:57.196Z,47.13
2018-07-13T09:22:24.151Z,45.40
2018-07-13T09:24:51.076Z,44.92
2018-07-13T09:27:17.999Z,45.94
2018-07-13T09:29:45.003Z,45.30
2018-07-13T09:32:11.967Z,46.76
2018-07-13T09:34:38.928Z,44.47
2018-07-13T09:37:05.977Z,42.73
2018-07-13T09:39:32.891Z,43.93
2018-07-13T09:41:59.794Z,42.32
2018-07-13T09:44:26.703Z,42.71
2018-07-13T09:46:53.705Z,44.80
2018-07-13T09:49:20.503Z,42.55
2018-07-13T09:51:47.452Z,40.73
2018-07-13T09:54:14.432Z,43.51
2018-07-13T09:56:41.248Z,41.42
2018-07-13T09:59:08.176Z,42.31
2018-07-13T10:01:35.109Z,41.59
2018-07-13T10:04:02.016Z,41.96
2018-07-13T10:06:28.937Z,40.06
2018-07-13T10:08:55.900Z,42.18
2018-07-13T10:11:23.784Z,42.46
2018-07-13T10:13:50.746Z,42.33
2018-07-13T10:16:17.651Z,40.94
2018-07-13T10:18:44.537Z,41.44
2018-07-13T10:21:11.440Z,42.24
2018-07-13T10:23:38.644Z,41.29
2018-07-13T10:26:07.571Z,40.09
2018-07-13T10:28:37.096Z,39.35
2018-07-13T10:31:03.996Z,40.12
2018-07-13T10:33:32.075Z,40.17
2018-07-13T10:36:00.442Z,38.55
2018-07-13T10:38:27.369Z,39.26
2018-07-13T10:40:55.076Z,39.25
2018-07-13T10:43:22.014Z,37.25
2018-07-13T10:45:48.903Z,35.37
2018-07-13T10:48:15.785Z,35.61
2018-07-13T10:50:42.693Z,38.24
2018-07-13T10:53:09.605Z,36.70
2018-07-13T10:55:36.520Z,39.24
2018-07-13T10:58:03.457Z,40.32
2018-07-13T11:00:30.394Z,41.18
2018-07-13T11:02:57.360Z,41.95
2018-07-13T11:05:24.238Z,41.71
2018-07-13T11:07:51.170Z,38.54
2018-07-13T11:10:18.060Z,40.64
2018-07-13T11:12:44.976Z,39.99
2018-07-13T11:15:11.892Z,37.64
2018-07-13T11:17:38.791Z,36.55
2018-07-13T11:20:06.591Z,37.54
2018-07-13T11:22:33.512Z,35.93
2018-07-13T11:25:00.406Z,35.63
2018-07-13T11:27:27.306Z,38.03
2018-07-13T11:29:54.211Z,36.91
2018-07-13T11:32:21.131Z,38.70
2018-07-13T11:34:48.068Z,39.79
2018-07-13T11:37:15.081Z,38.93
2018-07-13T11:39:41.959Z,40.97
2018-07-13T11:42:08.913Z,38.91
2018-07-13T11:44:35.852Z,40.30
2018-07-13T11:47:02.763Z,38.10
2018-07-13T11:49:29.667Z,36.56
2018-07-13T11:51:56.583Z,39.72
2018-07-13T11:54:23.556Z,37.70
2018-07-13T11:56:50.415Z,36.63
2018-07-13T11:59:17.319Z,38.01
2018-07-13T12:01:44.227Z,34.26
2018-07-13T12:04:11.182Z,34.55
2018-07-13T12:06:38.105Z,34.48
2018-07-13T12:09:05.467Z,36.37
2018-07-13T12:11:32.682Z,36.25
2018-07-13T12:13:59.564Z,35.01
2018-07-13T12:16:26.523Z,36.97
2018-07-13T12:18:53.432Z,36.46
2018-07-13T12:21:20.364Z,34.96
2018-07-13T12:23:47.272Z,34.20
2018-07-13T12:26:14.191Z,33.75
2018-07-13T12:28:41.205Z,34.93
2018-07-13T12:31:08.132Z,36.20
2018-07-13T12:33:35.046Z,37.36
2018-07-13T12:36:01.940Z,36.49
2018-07-13T12:38:28.850Z,37.59
2018-07-13T12:40:55.764Z,35.49
2018-07-13T12:43:23.652Z,36.41
2018-07-13T12:45:50.569Z,36.71
2018-07-13T12:48:17.504Z,35.51
2018-07-13T12:50:44.432Z,34.26
2018-07-13T12:53:11.367Z,36.98
2018-07-13T12:55:38.271Z,33.70
2018-07-13T12:58:05.294Z,31.61
2018-07-13T13:00:32.235Z,32.17
2018-07-13T13:02:59.177Z,33.28
2018-07-13T13:05:26.153Z,32.44
2018-07-13T13:07:53.047Z,33.79
2018-07-13T13:10:19.932Z,31.93
2018-07-13T13:12:46.819Z,30.66
2018-07-13T13:15:13.818Z,33.04
2018-07-13T13:17:40.737Z,31.26
2018-07-13T13:20:07.637Z,30.65
2018-07-13T13:22:34.592Z,30.99
2018-07-13T13:25:01.484Z,29.71
2018-07-13T13:27:28.377Z,32.86
2018-07-13T13:29:55.444Z,34.63
2018-07-13T13:32:22.365Z,32.26
2018-07-13T13:34:49.280Z,31.36
2018-07-13T13:37:16.181Z,32.10
2018-07-13T13:39:43.126Z,32.13
2018-07-13T13:42:10.144Z,32.49
2018-07-13T13:44:37.067Z,32.87
2018-07-13T13:47:05.082Z,32.86
2018-07-13T13:49:32.845Z,32.19
2018-07-13T13:51:59.791Z,29.80
2018-07-13T13:54:26.765Z,30.50
2018-07-13T13:56:53.659Z,30.87
2018-07-13T13:59:20.571Z,35.16
2018-07-13T14:01:47.456Z,32.91
2018-07-13T14:04:14.494Z,32.68
2018-07-13T14:06:41.372Z,32.64
2018-07-13T14:09:08.414Z,32.84
2018-07-13T14:11:35.326Z,31.82
2018-07-13T14:14:02.299Z,30.66
2018-07-13T14:16:29.189Z,30.83
2018-07-13T14:18:56.090Z,31.12
2018-07-13T14:21:23.074Z,29.43
2018-07-13T14:23:50.015Z,29.41
2018-07-13T14:26:16.913Z,29.29
2018-07-13T14:28:43.985Z,30.08
2018-07-13T14:31:10.914Z,29.86
2018-07-13T14:33:37.808Z,31.15
2018-07-13T14:36:04.738Z,30.09
2018-07-13T14:38:31.692Z,29.79
2018-07-13T14:40:58.624Z,29.91
2018-07-13T14:43:25.539Z,30.07
2018-07-13T14:45:52.490Z,27.67
2018-07-13T14:48:19.461Z,29.00
2018-07-13T14:50:46.391Z,26.60
2018-07-13T14:53:13.287Z,26.46
2018-07-13T14:55:40.233Z,26.36
2018-07-13T14:58:07.127Z,27.59
2018-07-13T15:00:34.046Z,27.89
2018-07-13T15:03:01.001Z,26.59
2018-07-13T15:05:27.884Z,25.39
2018-07-13T15:07:54.883Z,25.85
2018-07-13T15:10:22.021Z,25.72
2018-07-13T15:12:48.892Z,24.25
2018-07-13T15:15:15.827Z,23.01
2018-07-13T15:17:42.680Z,26.24
2018-07-13T15:20:09.602Z,24.27
2018-07-13T15:22:36.531Z,23.36
2018-07-13T15:25:03.447Z,24.54
2018-07-13T15:27:30.406Z,25.36
2018-07-13T15:29:57.307Z,23.18
2018-07-13T15:32:24.221Z,22.30
2018-07-13T15:34:51.124Z,23.59
2018-07-13T15:37:18.060Z,21.96
2018-07-13T15:39:44.920Z,23.16
2018-07-13T15:42:14.844Z,24.45
2018-07-13T15:44:43.912Z,25.79
2018-07-13T15:47:12.980Z,25.30
2018-07-13T15:49:41.794Z,24.43
2018-07-13T15:52:08.794Z,24.33
2018-07-13T15:54:36.828Z,24.06
2018-07-13T15:57:09.891Z,23.42
2018-07-13T15:59:36.865Z,25.19
2018-07-13T16:02:03.830Z,22.85
2018-07-13T16:04:30.796Z,22.56
2018-07-13T16:06:57.764Z,22.06
2018-07-13T16:09:24.709Z,22.22
2018-07-13T16:11:51.656Z,22.58
2018-07-13T16:14:18.593Z,21.73
2018-07-13T16:16:45.491Z,22.21
2018-07-13T16:19:12.472Z,22.18
2018-07-13T16:21:39.396Z,25.56
2018-07-13T16:24:06.278Z,24.29
2018-07-13T16:26:33.164Z,23.27
2018-07-13T16:29:03.079Z,21.96
2018-07-13T16:31:29.980Z,23.66
2018-07-13T16:33:56.893Z,24.56
2018-07-13T16:36:23.818Z,23.78
2018-07-13T16:38:50.709Z,23.78
2018-07-13T16:41:17.599Z,24.09
2018-07-13T16:43:44.495Z,24.12
2018-07-13T16:46:11.379Z,25.13
2018-07-13T16:48:38.282Z,23.23
2018-07-13T16:51:05.167Z,23.69
2018-07-13T16:53:32.162Z,24.93
2018-07-13T16:55:59.125Z,23.44
2018-07-13T16:58:26.058Z,23.38
2018-07-13T17:00:52.970Z,23.81
2018-07-13T17:03:20.815Z,24.80
2018-07-13T17:05:48.710Z,23.86
2018-07-13T17:08:15.606Z,23.45
2018-07-13T17:10:42.509Z,25.15
2018-07-13T17:13:09.407Z,24.28
2018-07-13T17:15:36.299Z,24.83
2018-07-13T17:18:03.273Z,23.75
2018-07-13T17:20:30.431Z,23.93
2018-07-13T17:22:57.208Z,23.10
2018-07-13T17:25:24.118Z,23.26
2018-07-13T17:27:51.227Z,23.39
2018-07-13T17:30:18.123Z,24.19
2018-07-13T17:32:45.078Z,24.32
2018-07-13T17:35:11.984Z,23.66
2018-07-13T17:37:38.873Z,23.45
2018-07-13T17:40:06.775Z,23.68
2018-07-13T17:42:33.699Z,22.63
2018-07-13T17:45:01.666Z,23.79
2018-07-13T17:47:28.576Z,24.53
2018-07-13T17:49:55.510Z,23.50
2018-07-13T17:52:22.439Z,23.63
2018-07-13T17:54:49.368Z,23.04
2018-07-13T17:57:16.330Z,24.20
2018-07-13T17:59:43.243Z,24.54
2018-07-13T18:02:10.146Z,24.68
2018-07-13T18:04:37.045Z,24.30
2018-07-13T18:07:04.026Z,24.99
2018-07-13T18:09:30.980Z,25.41
2018-07-13T18:11:57.820Z,24.81
2018-07-13T18:14:24.736Z,24.64
2018-07-13T18:16:51.632Z,24.96
2018-07-13T18:19:18.548Z,25.63
2018-07-13T18:21:45.448Z,26.73
2018-07-13T18:24:12.348Z,27.59
2018-07-13T18:26:39.285Z,28.48
2018-07-13T18:29:06.174Z,29.70
2018-07-13T18:31:33.090Z,31.39
2018-07-13T18:34:00.019Z,34.28
2018-07-13T18:36:26.902Z,36.84
2018-07-13T18:38:53.851Z,36.93
2018-07-13T18:41:20.782Z,37.84
2018-07-13T18:43:47.929Z,39.27
2018-07-13T18:46:14.815Z,42.21
2018-07-13T18:48:44.733Z,42.69
2018-07-13T18:51:11.620Z,43.91
2018-07-13T18:53:38.522Z,42.77
2018-07-13T18:56:05.574Z,42.66
2018-07-13T18:58:32.506Z,43.84
2018-07-13T19:00:59.444Z,45.05
2018-07-13T19:03:26.371Z,43.89
2018-07-13T19:05:53.285Z,45.40
2018-07-13T19:08:20.193Z,47.01
2018-07-13T19:10:47.131Z,45.83
2018-07-13T19:13:14.045Z,46.82
2018-07-13T19:15:40.947Z,46.04
2018-07-13T19:18:07.858Z,46.51
2018-07-13T19:20:34.771Z,46.22
2018-07-13T19:23:01.716Z,46.30
2018-07-13T19:25:28.613Z,46.79
2018-07-13T19:27:55.612Z,46.67
2018-07-13T19:30:23.316Z,47.72
2018-07-13T19:32:50.217Z,47.55
2018-07-13T19:35:17.097Z,47.75
2018-07-13T19:37:43.987Z,47.77
2018-07-13T19:40:10.932Z,49.05
2018-07-13T19:42:37.831Z,49.53
2018-07-13T19:45:04.845Z,49.55
2018-07-13T19:47:32.340Z,50.04
2018-07-13T19:49:58.676Z,50.99
2018-07-13T19:52:25.583Z,52.42
2018-07-13T19:54:52.477Z,52.81
2018-07-13T19:57:19.567Z,53.52
2018-07-13T19:59:46.297Z,54.97
2018-07-13T20:02:13.195Z,55.35
2018-07-13T20:04:40.099Z,57.05
2018-07-13T20:07:07.866Z,56.76
2018-07-13T20:09:34.795Z,58.12
2018-07-13T20:12:01.708Z,56.49
2018-07-13T20:14:28.638Z,57.60
2018-07-13T20:16:55.652Z,57.31
2018-07-13T20:19:22.484Z,56.58
2018-07-13T20:21:49.428Z,55.82
2018-07-13T20:24:16.471Z,57.36
2018-07-13T20:26:43.372Z,56.42
2018-07-13T20:29:10.274Z,56.37
2018-07-13T20:31:37.206Z,56.68
2018-07-13T20:34:04.477Z,57.80
2018-07-13T20:36:31.385Z,57.14
2018-07-13T20:38:58.375Z,57.76
2018-07-13T20:41:25.304Z,57.92
2018-07-13T20:43:52.229Z,58.89
2018-07-13T20:46:19.131Z,59.85
2018-07-13T20:48:46.018Z,59.68
2018-07-13T20:51:12.897Z,59.95
2018-07-13T20:53:39.840Z,60.00
2018-07-13T20:56:06.729Z,60.19
2018-07-13T20:58:33.655Z,60.49
2018-07-13T21:01:00.577Z,60.96
2018-07-13T21:03:27.502Z,61.51
2018-07-13T21:05:54.424Z,61.45
2018-07-13T21:08:21.361Z,62.49
2018-07-13T21:10:48.250Z,61.33
2018-07-13T21:13:15.136Z,62.21
2018-07-13T21:15:42.065Z,61.75
2018-07-13T21:18:08.981Z,61.76
2018-07-13T21:20:35.904Z,62.26
2018-07-13T21:23:02.801Z,62.81
2018-07-13T21:25:29.684Z,64.09
2018-07-13T21:27:56.589Z,63.70
2018-07-13T21:30:23.473Z,64.49
2018-07-13T21:32:50.406Z,65.54
2018-07-13T21:35:17.290Z,65.44
2018-07-13T21:37:44.210Z,65.14
2018-07-13T21:40:11.119Z,66.12
2018-07-13T21:42:38.023Z,65.92
2018-07-13T21:45:04.942Z,66.55
2018-07-13T21:47:31.844Z,66.14
2018-07-13T21:49:58.776Z,65.77
2018-07-13T21:52:25.674Z,66.15
2018-07-13T21:54:52.562Z,66.92
2018-07-13T21:57:19.434Z,66.49
2018-07-13T21:59:46.383Z,66.28
2018-07-13T22:02:13.324Z,66.86
2018-07-13T22:04:41.059Z,65.85
2018-07-13T22:07:07.944Z,65.56
2018-07-13T22:09:34.870Z,65.01
2018-07-13T22:12:02.486Z,65.75
2018-07-13T22:14:29.374Z,65.00
2018-07-13T22:16:56.281Z,65.04
2018-07-13T22:19:23.178Z,65.20
2018-07-13T22:21:50.062Z,66.48
2018-07-13T22:24:16.956Z,66.01
2018-07-13T22:26:43.835Z,66.50
2018-07-13T22:29:10.739Z,66.11
2018-07-13T22:31:37.623Z,65.68
2018-07-13T22:34:04.885Z,65.41
2018-07-13T22:36:31.770Z,65.31
2018-07-13T22:38:58.667Z,65.00
2018-07-13T22:41:25.556Z,65.16
2018-07-13T22:43:52.444Z,65.84
2018-07-13T22:46:19.343Z,66.87
2018-07-13T22:48:46.408Z,65.44
2018-07-13T22:51:13.402Z,65.09
2018-07-13T22:53:40.240Z,64.82
2018-07-13T22:56:08.062Z,64.78
2018-07-13T22:58:34.947Z,64.61
2018-07-13T23:01:01.866Z,65.35
2018-07-13T23:03:30.850Z,64.93
2018-07-13T23:05:58.426Z,65.84
2018-07-13T23:08:25.317Z,65.36
2018-07-13T23:10:52.196Z,65.26
2018-07-13T23:13:19.082Z,65.58
2018-07-13T23:15:45.992Z,64.97
2018-07-13T23:18:12.904Z,64.82
2018-07-13T23:20:39.817Z,64.12
2018-07-13T23:23:06.720Z,64.48
2018-07-13T23:25:33.602Z,64.66
2018-07-13T23:28:00.632Z,63.96
2018-07-13T23:30:27.550Z,64.35
2018-07-13T23:32:54.435Z,64.56
2018-07-13T23:35:21.311Z,65.39
2018-07-13T23:37:48.225Z,64.29
2018-07-13T23:40:15.125Z,65.24
2018-07-13T23:42:42.004Z,65.21
2018-07-13T23:45:08.958Z,65.39
2018-07-13T23:47:35.945Z,65.95
2018-07-13T23:50:02.896Z,66.45
2018-07-13T23:52:29.746Z,65.60
2018-07-13T23:54:56.689Z,65.49
2018-07-13T23:57:25.558Z,65.92
2018-07-13T23:59:52.511Z,66.18
